N511WM KMCO-KAAF
Flight info
| Callsign | N511WM |
|---|---|
| Flight time | 1h 7m |
| Altitude | 24000 |
| Route | VIZTA HEVVN TERES |
| Aircraft | BE60/L-SDFGRY/C |
Departure
| Time | 2026-04-19 23:23 |
|---|---|
| Airport | Orlando International Airport (KMCO) |
Arrival
| Time | 2026-04-20 00:31 |
|---|---|
| Airport | Apalachicola Regional Airport (KAAF) |
| Time | Latitude | Longitude | Altitude | Speed | Heading |
|---|---|---|---|---|---|
| 2026-04-19 23:08 | 28.42199 | -81.33141 | 95 ft | 0 kts | 359° |
| 2026-04-19 23:16 | 28.42201 | -81.33142 | 95 ft | 2 kts | 359° |
| 2026-04-19 23:16 | 28.42203 | -81.33096 | 95 ft | 11 kts | 97° |
| 2026-04-19 23:16 | 28.42193 | -81.33018 | 96 ft | 7 kts | 98° |
| 2026-04-19 23:17 | 28.42188 | -81.32967 | 97 ft | 10 kts | 103° |
| 2026-04-19 23:17 | 28.42107 | -81.32913 | 97 ft | 20 kts | 180° |
| 2026-04-19 23:17 | 28.41943 | -81.32913 | 100 ft | 27 kts | 181° |
| 2026-04-19 23:17 | 28.41737 | -81.32910 | 104 ft | 33 kts | 179° |
| 2026-04-19 23:18 | 28.41577 | -81.32907 | 102 ft | 9 kts | 175° |
| 2026-04-19 23:18 | 28.41535 | -81.32833 | 102 ft | 14 kts | 94° |
| 2026-04-19 23:18 | 28.41536 | -81.32782 | 103 ft | 0 kts | 4° |
| 2026-04-19 23:22 | 28.41537 | -81.32782 | 103 ft | 1 kts | 4° |
| 2026-04-19 23:22 | 28.41542 | -81.32762 | 103 ft | 6 kts | 103° |
| 2026-04-19 23:22 | 28.41538 | -81.32694 | 103 ft | 11 kts | 87° |
| 2026-04-19 23:22 | 28.41613 | -81.32663 | 103 ft | 21 kts | 359° |
| 2026-04-19 23:23 | 28.41930 | -81.32667 | 101 ft | 74 kts | 0° |
| 2026-04-19 23:23 | 28.42586 | -81.32660 | 157 ft | 108 kts | 356° |
| 2026-04-19 23:23 | 28.43414 | -81.32669 | 365 ft | 125 kts | 354° |
| 2026-04-19 23:23 | 28.44272 | -81.32720 | 882 ft | 121 kts | 350° |
| 2026-04-19 23:24 | 28.45112 | -81.32775 | 1258 ft | 122 kts | 352° |
| 2026-04-19 23:24 | 28.45836 | -81.33109 | 1616 ft | 112 kts | 301° |
| 2026-04-19 23:24 | 28.46178 | -81.33926 | 1894 ft | 118 kts | 295° |
| 2026-04-19 23:24 | 28.46550 | -81.34781 | 2212 ft | 125 kts | 295° |
| 2026-04-19 23:25 | 28.46950 | -81.35725 | 2422 ft | 140 kts | 295° |
| 2026-04-19 23:25 | 28.47388 | -81.36763 | 2591 ft | 150 kts | 295° |
| 2026-04-19 23:25 | 28.47852 | -81.37849 | 2835 ft | 154 kts | 295° |
| 2026-04-19 23:25 | 28.48320 | -81.38956 | 3076 ft | 157 kts | 295° |
| 2026-04-19 23:26 | 28.48792 | -81.40078 | 3370 ft | 158 kts | 295° |
| 2026-04-19 23:26 | 28.49266 | -81.41197 | 3693 ft | 157 kts | 295° |
| 2026-04-19 23:26 | 28.49742 | -81.42321 | 3972 ft | 159 kts | 295° |
| 2026-04-19 23:26 | 28.50219 | -81.43448 | 4242 ft | 159 kts | 295° |
| 2026-04-19 23:27 | 28.50695 | -81.44574 | 4556 ft | 159 kts | 295° |
| 2026-04-19 23:27 | 28.51172 | -81.45710 | 4864 ft | 159 kts | 295° |
| 2026-04-19 23:27 | 28.51652 | -81.46842 | 5181 ft | 159 kts | 295° |
| 2026-04-19 23:27 | 28.52131 | -81.47978 | 5501 ft | 159 kts | 294° |
| 2026-04-19 23:28 | 28.52606 | -81.49098 | 5858 ft | 156 kts | 295° |
| 2026-04-19 23:28 | 28.53073 | -81.50211 | 6191 ft | 156 kts | 294° |
| 2026-04-19 23:28 | 28.53541 | -81.51322 | 6511 ft | 156 kts | 295° |
| 2026-04-19 23:28 | 28.54011 | -81.52434 | 6819 ft | 156 kts | 295° |
| 2026-04-19 23:29 | 28.54479 | -81.53542 | 7135 ft | 155 kts | 294° |
| 2026-04-19 23:29 | 28.54944 | -81.54645 | 7472 ft | 154 kts | 294° |
| 2026-04-19 23:29 | 28.55405 | -81.55745 | 7788 ft | 154 kts | 295° |
| 2026-04-19 23:29 | 28.55870 | -81.56846 | 8104 ft | 155 kts | 294° |
| 2026-04-19 23:30 | 28.56330 | -81.57935 | 8414 ft | 155 kts | 294° |
| 2026-04-19 23:30 | 28.56794 | -81.59037 | 8742 ft | 155 kts | 294° |
| 2026-04-19 23:30 | 28.57265 | -81.60156 | 9076 ft | 154 kts | 294° |
| 2026-04-19 23:30 | 28.57721 | -81.61241 | 9417 ft | 154 kts | 293° |
| 2026-04-19 23:31 | 28.58188 | -81.62352 | 9763 ft | 153 kts | 293° |
| 2026-04-19 23:31 | 28.58647 | -81.63444 | 10089 ft | 153 kts | 293° |
| 2026-04-19 23:31 | 28.59105 | -81.64531 | 10402 ft | 152 kts | 293° |
| 2026-04-19 23:31 | 28.59560 | -81.65615 | 10718 ft | 151 kts | 292° |
| 2026-04-19 23:32 | 28.60011 | -81.66689 | 11038 ft | 150 kts | 292° |
| 2026-04-19 23:32 | 28.60456 | -81.67746 | 11356 ft | 150 kts | 292° |
| 2026-04-19 23:32 | 28.60904 | -81.68813 | 11681 ft | 149 kts | 292° |
| 2026-04-19 23:32 | 28.61349 | -81.69874 | 12008 ft | 148 kts | 292° |
| 2026-04-19 23:33 | 28.61793 | -81.70932 | 12336 ft | 148 kts | 291° |
| 2026-04-19 23:33 | 28.62235 | -81.71984 | 12670 ft | 147 kts | 291° |
| 2026-04-19 23:33 | 28.62675 | -81.73032 | 13013 ft | 146 kts | 291° |
| 2026-04-19 23:33 | 28.63112 | -81.74075 | 13352 ft | 146 kts | 291° |
| 2026-04-19 23:34 | 28.63548 | -81.75116 | 13695 ft | 145 kts | 291° |
| 2026-04-19 23:34 | 28.63983 | -81.76152 | 14009 ft | 145 kts | 290° |
| 2026-04-19 23:34 | 28.64416 | -81.77185 | 14311 ft | 144 kts | 291° |
| 2026-04-19 23:34 | 28.64848 | -81.78217 | 14605 ft | 144 kts | 290° |
| 2026-04-19 23:35 | 28.65280 | -81.79248 | 14903 ft | 144 kts | 290° |
| 2026-04-19 23:35 | 28.65711 | -81.80277 | 15201 ft | 144 kts | 290° |
| 2026-04-19 23:35 | 28.66141 | -81.81305 | 15497 ft | 144 kts | 290° |
| 2026-04-19 23:35 | 28.66571 | -81.82332 | 15797 ft | 144 kts | 290° |
| 2026-04-19 23:36 | 28.67002 | -81.83362 | 16099 ft | 144 kts | 290° |
| 2026-04-19 23:36 | 28.67430 | -81.84388 | 16403 ft | 144 kts | 290° |
| 2026-04-19 23:36 | 28.67861 | -81.85416 | 16715 ft | 144 kts | 290° |
| 2026-04-19 23:36 | 28.68290 | -81.86442 | 17024 ft | 143 kts | 290° |
| 2026-04-19 23:37 | 28.68724 | -81.87484 | 17248 ft | 149 kts | 290° |
| 2026-04-19 23:37 | 28.69173 | -81.88559 | 17459 ft | 155 kts | 290° |
| 2026-04-19 23:37 | 28.69641 | -81.89676 | 17698 ft | 158 kts | 290° |
| 2026-04-19 23:37 | 28.70117 | -81.90815 | 17955 ft | 160 kts | 290° |
| 2026-04-19 23:38 | 28.70599 | -81.91969 | 18220 ft | 162 kts | 290° |
| 2026-04-19 23:38 | 28.71083 | -81.93129 | 18471 ft | 163 kts | 290° |
| 2026-04-19 23:38 | 28.71572 | -81.94300 | 18710 ft | 164 kts | 290° |
| 2026-04-19 23:38 | 28.72062 | -81.95475 | 18991 ft | 164 kts | 290° |
| 2026-04-19 23:39 | 28.72550 | -81.96643 | 19249 ft | 163 kts | 289° |
| 2026-04-19 23:39 | 28.73036 | -81.97809 | 19505 ft | 163 kts | 290° |
| 2026-04-19 23:39 | 28.73523 | -81.98976 | 19761 ft | 163 kts | 290° |
| 2026-04-19 23:39 | 28.74009 | -82.00142 | 20016 ft | 163 kts | 289° |
| 2026-04-19 23:40 | 28.74495 | -82.01310 | 20270 ft | 163 kts | 289° |
| 2026-04-19 23:40 | 28.74979 | -82.02473 | 20525 ft | 162 kts | 289° |
| 2026-04-19 23:40 | 28.75462 | -82.03629 | 20775 ft | 161 kts | 291° |
| 2026-04-19 23:40 | 28.76072 | -82.04711 | 21022 ft | 163 kts | 297° |
| 2026-04-19 23:41 | 28.76704 | -82.05777 | 21264 ft | 161 kts | 296° |
| 2026-04-19 23:41 | 28.77325 | -82.06839 | 21501 ft | 160 kts | 296° |
| 2026-04-19 23:41 | 28.77940 | -82.07890 | 21727 ft | 159 kts | 296° |
| 2026-04-19 23:41 | 28.78553 | -82.08934 | 21943 ft | 157 kts | 296° |
| 2026-04-19 23:42 | 28.79151 | -82.09954 | 22157 ft | 156 kts | 296° |
| 2026-04-19 23:42 | 28.79752 | -82.10978 | 22356 ft | 155 kts | 296° |
| 2026-04-19 23:42 | 28.80348 | -82.11995 | 22548 ft | 154 kts | 296° |
| 2026-04-19 23:42 | 28.80938 | -82.13003 | 22730 ft | 152 kts | 295° |
| 2026-04-19 23:43 | 28.81521 | -82.14003 | 22900 ft | 150 kts | 296° |
| 2026-04-19 23:43 | 28.82103 | -82.14990 | 23059 ft | 150 kts | 295° |
| 2026-04-19 23:43 | 28.82679 | -82.15974 | 23222 ft | 149 kts | 295° |
| 2026-04-19 23:43 | 28.83250 | -82.16950 | 23365 ft | 148 kts | 295° |
| 2026-04-19 23:44 | 28.83817 | -82.17920 | 23508 ft | 147 kts | 295° |
| 2026-04-19 23:44 | 28.84380 | -82.18883 | 23640 ft | 145 kts | 295° |
| 2026-04-19 23:44 | 28.84942 | -82.19842 | 23750 ft | 145 kts | 295° |
| 2026-04-19 23:44 | 28.85497 | -82.20793 | 23850 ft | 144 kts | 295° |
| 2026-04-19 23:45 | 28.86050 | -82.21737 | 23945 ft | 143 kts | 295° |
| 2026-04-19 23:45 | 28.86599 | -82.22677 | 24033 ft | 142 kts | 295° |
| 2026-04-19 23:45 | 28.87150 | -82.23623 | 24059 ft | 146 kts | 295° |
| 2026-04-19 23:45 | 28.87719 | -82.24599 | 24067 ft | 150 kts | 295° |
| 2026-04-19 23:46 | 28.88305 | -82.25602 | 24073 ft | 155 kts | 295° |
| 2026-04-19 23:46 | 28.88920 | -82.26658 | 24077 ft | 165 kts | 296° |
| 2026-04-19 23:46 | 28.89575 | -82.27782 | 24078 ft | 175 kts | 296° |
| 2026-04-19 23:46 | 28.90267 | -82.28963 | 24077 ft | 184 kts | 296° |
| 2026-04-19 23:47 | 28.90991 | -82.30202 | 24074 ft | 191 kts | 296° |
| 2026-04-19 23:47 | 28.91734 | -82.31475 | 24070 ft | 198 kts | 297° |
| 2026-04-19 23:47 | 28.92520 | -82.32820 | 24068 ft | 204 kts | 297° |
| 2026-04-19 23:47 | 28.93304 | -82.34164 | 24068 ft | 208 kts | 297° |
| 2026-04-19 23:48 | 28.94115 | -82.35554 | 24072 ft | 212 kts | 297° |
| 2026-04-19 23:48 | 28.94940 | -82.36970 | 24071 ft | 215 kts | 297° |
| 2026-04-19 23:48 | 28.95776 | -82.38404 | 24069 ft | 218 kts | 297° |
| 2026-04-19 23:48 | 28.96623 | -82.39856 | 24068 ft | 221 kts | 297° |
| 2026-04-19 23:49 | 28.97476 | -82.41323 | 24070 ft | 223 kts | 297° |
| 2026-04-19 23:49 | 28.98337 | -82.42801 | 24070 ft | 224 kts | 297° |
| 2026-04-19 23:49 | 28.99204 | -82.44290 | 24071 ft | 226 kts | 297° |
| 2026-04-19 23:49 | 29.00073 | -82.45786 | 24072 ft | 227 kts | 297° |
| 2026-04-19 23:50 | 29.00951 | -82.47296 | 24072 ft | 228 kts | 297° |
| 2026-04-19 23:50 | 29.01829 | -82.48807 | 24073 ft | 229 kts | 297° |
| 2026-04-19 23:50 | 29.02713 | -82.50329 | 24086 ft | 230 kts | 297° |
| 2026-04-19 23:50 | 29.03596 | -82.51849 | 24085 ft | 230 kts | 297° |
| 2026-04-19 23:51 | 29.04482 | -82.53374 | 24087 ft | 231 kts | 297° |
| 2026-04-19 23:51 | 29.05369 | -82.54904 | 24084 ft | 231 kts | 297° |
| 2026-04-19 23:51 | 29.05960 | -82.55921 | 24087 ft | 231 kts | 297° |
| 2026-04-19 23:51 | 29.06847 | -82.57452 | 24084 ft | 231 kts | 297° |
| 2026-04-19 23:52 | 29.07735 | -82.58983 | 24082 ft | 231 kts | 297° |
| 2026-04-19 23:52 | 29.08621 | -82.60515 | 24082 ft | 231 kts | 297° |
| 2026-04-19 23:52 | 29.09509 | -82.62048 | 24081 ft | 231 kts | 297° |
| 2026-04-19 23:52 | 29.10397 | -82.63581 | 24082 ft | 231 kts | 297° |
| 2026-04-19 23:53 | 29.11286 | -82.65116 | 24086 ft | 231 kts | 297° |
| 2026-04-19 23:53 | 29.12174 | -82.66652 | 24087 ft | 232 kts | 297° |
| 2026-04-19 23:53 | 29.13063 | -82.68188 | 24085 ft | 232 kts | 297° |
| 2026-04-19 23:53 | 29.13951 | -82.69724 | 24086 ft | 232 kts | 297° |
| 2026-04-19 23:54 | 29.14838 | -82.71261 | 24086 ft | 231 kts | 297° |
| 2026-04-19 23:54 | 29.15726 | -82.72797 | 24084 ft | 231 kts | 297° |
| 2026-04-19 23:54 | 29.16614 | -82.74334 | 24084 ft | 231 kts | 297° |
| 2026-04-19 23:54 | 29.17503 | -82.75874 | 24082 ft | 231 kts | 297° |
| 2026-04-19 23:55 | 29.18390 | -82.77411 | 24087 ft | 231 kts | 297° |
| 2026-04-19 23:55 | 29.19275 | -82.78947 | 24084 ft | 231 kts | 297° |
| 2026-04-19 23:55 | 29.20161 | -82.80482 | 24086 ft | 231 kts | 297° |
| 2026-04-19 23:55 | 29.21046 | -82.82017 | 24085 ft | 230 kts | 297° |
| 2026-04-19 23:56 | 29.21929 | -82.83547 | 24082 ft | 230 kts | 297° |
| 2026-04-19 23:56 | 29.22809 | -82.85077 | 24082 ft | 230 kts | 297° |
| 2026-04-19 23:56 | 29.23689 | -82.86606 | 24091 ft | 230 kts | 297° |
| 2026-04-19 23:56 | 29.24567 | -82.88131 | 24089 ft | 230 kts | 297° |
| 2026-04-19 23:57 | 29.25448 | -82.89662 | 24078 ft | 230 kts | 297° |
| 2026-04-19 23:57 | 29.26326 | -82.91189 | 24086 ft | 229 kts | 297° |
| 2026-04-19 23:57 | 29.27206 | -82.92719 | 24078 ft | 229 kts | 297° |
| 2026-04-19 23:57 | 29.28082 | -82.94245 | 24086 ft | 229 kts | 297° |
| 2026-04-19 23:58 | 29.28959 | -82.95771 | 24089 ft | 229 kts | 297° |
| 2026-04-19 23:58 | 29.29824 | -82.97276 | 24091 ft | 229 kts | 297° |
| 2026-04-19 23:58 | 29.30700 | -82.98802 | 24091 ft | 229 kts | 297° |
| 2026-04-19 23:58 | 29.31577 | -83.00331 | 24092 ft | 229 kts | 297° |
| 2026-04-19 23:59 | 29.32453 | -83.01858 | 24097 ft | 229 kts | 297° |
| 2026-04-19 23:59 | 29.33328 | -83.03384 | 24086 ft | 229 kts | 297° |
| 2026-04-19 23:59 | 29.34202 | -83.04908 | 24097 ft | 229 kts | 297° |
| 2026-04-19 23:59 | 29.35075 | -83.06432 | 24097 ft | 229 kts | 297° |
| 2026-04-20 00:00 | 29.35948 | -83.07958 | 24109 ft | 229 kts | 297° |
| 2026-04-20 00:00 | 29.36819 | -83.09486 | 24102 ft | 229 kts | 297° |
| 2026-04-20 00:00 | 29.37696 | -83.11008 | 24103 ft | 228 kts | 297° |
| 2026-04-20 00:00 | 29.38566 | -83.12528 | 24103 ft | 228 kts | 297° |
| 2026-04-20 00:01 | 29.39436 | -83.14050 | 24099 ft | 228 kts | 297° |
| 2026-04-20 00:01 | 29.40303 | -83.15567 | 24099 ft | 228 kts | 297° |
| 2026-04-20 00:01 | 29.42034 | -83.18596 | 24101 ft | 227 kts | 297° |
| 2026-04-20 00:02 | 29.42898 | -83.20110 | 24103 ft | 227 kts | 297° |
| 2026-04-20 00:02 | 29.43764 | -83.21626 | 24099 ft | 227 kts | 297° |
| 2026-04-20 00:02 | 29.44628 | -83.23139 | 24101 ft | 227 kts | 297° |
| 2026-04-20 00:02 | 29.45491 | -83.24652 | 24103 ft | 226 kts | 297° |
| 2026-04-20 00:03 | 29.46353 | -83.26164 | 24103 ft | 226 kts | 297° |
| 2026-04-20 00:03 | 29.47214 | -83.27675 | 24103 ft | 226 kts | 297° |
| 2026-04-20 00:03 | 29.48075 | -83.29186 | 24103 ft | 226 kts | 297° |
| 2026-04-20 00:03 | 29.48936 | -83.30697 | 24103 ft | 226 kts | 297° |
| 2026-04-20 00:04 | 29.49797 | -83.32209 | 24108 ft | 226 kts | 297° |
| 2026-04-20 00:04 | 29.50657 | -83.33720 | 24105 ft | 226 kts | 297° |
| 2026-04-20 00:04 | 29.51517 | -83.35231 | 24108 ft | 226 kts | 297° |
| 2026-04-20 00:04 | 29.52378 | -83.36744 | 24108 ft | 226 kts | 297° |
| 2026-04-20 00:05 | 29.53239 | -83.38260 | 24111 ft | 226 kts | 297° |
| 2026-04-20 00:05 | 29.54097 | -83.39768 | 24107 ft | 226 kts | 297° |
| 2026-04-20 00:05 | 29.54957 | -83.41282 | 24113 ft | 226 kts | 297° |
| 2026-04-20 00:05 | 29.55816 | -83.42795 | 24113 ft | 226 kts | 297° |
| 2026-04-20 00:06 | 29.56674 | -83.44308 | 24117 ft | 226 kts | 297° |
| 2026-04-20 00:06 | 29.57533 | -83.45821 | 24117 ft | 226 kts | 297° |
| 2026-04-20 00:06 | 29.58393 | -83.47334 | 24125 ft | 226 kts | 297° |
| 2026-04-20 00:06 | 29.59253 | -83.48850 | 24124 ft | 226 kts | 297° |
| 2026-04-20 00:07 | 29.60102 | -83.50349 | 24123 ft | 226 kts | 297° |
| 2026-04-20 00:07 | 29.60961 | -83.51865 | 24123 ft | 226 kts | 297° |
| 2026-04-20 00:07 | 29.61820 | -83.53380 | 24123 ft | 226 kts | 297° |
| 2026-04-20 00:07 | 29.62679 | -83.54898 | 24123 ft | 226 kts | 297° |
| 2026-04-20 00:08 | 29.63536 | -83.56414 | 24123 ft | 226 kts | 297° |
| 2026-04-20 00:08 | 29.64395 | -83.57930 | 24120 ft | 226 kts | 297° |
| 2026-04-20 00:08 | 29.65252 | -83.59445 | 24124 ft | 226 kts | 297° |
| 2026-04-20 00:08 | 29.66110 | -83.60961 | 24132 ft | 226 kts | 297° |
| 2026-04-20 00:09 | 29.66967 | -83.62478 | 24128 ft | 226 kts | 297° |
| 2026-04-20 00:09 | 29.67827 | -83.63999 | 24137 ft | 227 kts | 297° |
| 2026-04-20 00:09 | 29.68686 | -83.65521 | 24134 ft | 227 kts | 297° |
| 2026-04-20 00:09 | 29.69546 | -83.67046 | 24134 ft | 227 kts | 297° |
| 2026-04-20 00:10 | 29.70407 | -83.68570 | 24134 ft | 227 kts | 297° |
| 2026-04-20 00:10 | 29.71268 | -83.70093 | 24135 ft | 227 kts | 297° |
| 2026-04-20 00:10 | 29.72129 | -83.71622 | 24135 ft | 227 kts | 297° |
| 2026-04-20 00:10 | 29.72987 | -83.73147 | 24135 ft | 227 kts | 297° |
| 2026-04-20 00:11 | 29.73847 | -83.74671 | 24135 ft | 227 kts | 297° |
| 2026-04-20 00:11 | 29.74709 | -83.76198 | 24140 ft | 227 kts | 297° |
| 2026-04-20 00:11 | 29.75567 | -83.77723 | 24140 ft | 227 kts | 297° |
| 2026-04-20 00:11 | 29.76422 | -83.79248 | 24140 ft | 227 kts | 297° |
| 2026-04-20 00:12 | 29.77280 | -83.80769 | 24145 ft | 227 kts | 297° |
| 2026-04-20 00:12 | 29.78137 | -83.82291 | 24144 ft | 226 kts | 297° |
| 2026-04-20 00:12 | 29.78993 | -83.83813 | 24143 ft | 226 kts | 297° |
| 2026-04-20 00:12 | 29.79847 | -83.85334 | 24145 ft | 226 kts | 297° |
| 2026-04-20 00:13 | 29.80703 | -83.86857 | 24148 ft | 227 kts | 297° |
| 2026-04-20 00:13 | 29.81559 | -83.88381 | 24148 ft | 227 kts | 297° |
| 2026-04-20 00:13 | 29.82316 | -83.89955 | 24149 ft | 223 kts | 286° |
| 2026-04-20 00:13 | 29.82749 | -83.91667 | 24145 ft | 222 kts | 283° |
| 2026-04-20 00:14 | 29.83188 | -83.93352 | 24146 ft | 223 kts | 284° |
| 2026-04-20 00:14 | 29.83636 | -83.95058 | 24147 ft | 223 kts | 284° |
| 2026-04-20 00:14 | 29.84081 | -83.96770 | 24147 ft | 223 kts | 284° |
| 2026-04-20 00:14 | 29.84521 | -83.98476 | 24148 ft | 223 kts | 284° |
| 2026-04-20 00:15 | 29.84964 | -84.00184 | 24150 ft | 222 kts | 284° |
| 2026-04-20 00:15 | 29.85406 | -84.01893 | 24150 ft | 223 kts | 284° |
| 2026-04-20 00:15 | 29.85846 | -84.03601 | 24150 ft | 222 kts | 284° |
| 2026-04-20 00:15 | 29.86288 | -84.05309 | 24129 ft | 223 kts | 284° |
| 2026-04-20 00:16 | 29.86745 | -84.07082 | 23764 ft | 238 kts | 284° |
| 2026-04-20 00:16 | 29.87231 | -84.08966 | 23232 ft | 253 kts | 284° |
| 2026-04-20 00:16 | 29.87745 | -84.10955 | 22693 ft | 265 kts | 284° |
| 2026-04-20 00:16 | 29.88279 | -84.13018 | 22167 ft | 271 kts | 285° |
| 2026-04-20 00:17 | 29.88815 | -84.15096 | 21656 ft | 270 kts | 285° |
| 2026-04-20 00:17 | 29.89347 | -84.17164 | 21148 ft | 268 kts | 285° |
| 2026-04-20 00:17 | 29.89873 | -84.19215 | 20653 ft | 267 kts | 285° |
| 2026-04-20 00:17 | 29.90399 | -84.21261 | 20169 ft | 265 kts | 285° |
| 2026-04-20 00:18 | 29.90921 | -84.23293 | 19692 ft | 263 kts | 285° |
| 2026-04-20 00:18 | 29.91436 | -84.25304 | 19236 ft | 260 kts | 285° |
| 2026-04-20 00:18 | 29.91951 | -84.27304 | 18779 ft | 259 kts | 286° |
| 2026-04-20 00:18 | 29.92458 | -84.29284 | 18312 ft | 257 kts | 285° |
| 2026-04-20 00:19 | 29.92961 | -84.31254 | 17801 ft | 255 kts | 286° |
| 2026-04-20 00:19 | 29.93273 | -84.33253 | 17294 ft | 254 kts | 272° |
| 2026-04-20 00:19 | 29.93048 | -84.35268 | 16803 ft | 255 kts | 257° |
| 2026-04-20 00:19 | 29.92471 | -84.37200 | 16334 ft | 254 kts | 254° |
| 2026-04-20 00:20 | 29.91896 | -84.39119 | 15872 ft | 252 kts | 255° |
| 2026-04-20 00:20 | 29.91331 | -84.41032 | 15421 ft | 252 kts | 255° |
| 2026-04-20 00:20 | 29.90772 | -84.42935 | 14973 ft | 249 kts | 255° |
| 2026-04-20 00:20 | 29.90204 | -84.44815 | 14547 ft | 248 kts | 254° |
| 2026-04-20 00:21 | 29.89638 | -84.46688 | 14123 ft | 247 kts | 254° |
| 2026-04-20 00:21 | 29.89080 | -84.48563 | 13662 ft | 246 kts | 254° |
| 2026-04-20 00:21 | 29.88526 | -84.50427 | 13206 ft | 246 kts | 254° |
| 2026-04-20 00:21 | 29.87970 | -84.52287 | 12752 ft | 245 kts | 254° |
| 2026-04-20 00:22 | 29.87414 | -84.54144 | 12306 ft | 245 kts | 254° |
| 2026-04-20 00:22 | 29.86860 | -84.55995 | 11870 ft | 244 kts | 254° |
| 2026-04-20 00:22 | 29.86308 | -84.57838 | 11446 ft | 243 kts | 253° |
| 2026-04-20 00:22 | 29.85766 | -84.59647 | 11029 ft | 241 kts | 253° |
| 2026-04-20 00:23 | 29.85213 | -84.61492 | 10612 ft | 240 kts | 253° |
| 2026-04-20 00:23 | 29.84670 | -84.63302 | 10210 ft | 238 kts | 253° |
| 2026-04-20 00:23 | 29.84128 | -84.65097 | 9783 ft | 237 kts | 253° |
| 2026-04-20 00:23 | 29.83592 | -84.66881 | 9358 ft | 235 kts | 253° |
| 2026-04-20 00:24 | 29.83069 | -84.68630 | 8936 ft | 233 kts | 253° |
| 2026-04-20 00:24 | 29.82540 | -84.70387 | 8513 ft | 232 kts | 253° |
| 2026-04-20 00:24 | 29.82013 | -84.72137 | 8091 ft | 230 kts | 253° |
| 2026-04-20 00:24 | 29.81491 | -84.73869 | 7692 ft | 229 kts | 253° |
| 2026-04-20 00:25 | 29.80970 | -84.75600 | 7299 ft | 228 kts | 253° |
| 2026-04-20 00:25 | 29.80450 | -84.77328 | 6862 ft | 229 kts | 254° |
| 2026-04-20 00:25 | 29.79925 | -84.79061 | 6415 ft | 230 kts | 254° |
| 2026-04-20 00:25 | 29.79401 | -84.80800 | 5964 ft | 230 kts | 255° |
| 2026-04-20 00:26 | 29.78874 | -84.82551 | 5515 ft | 232 kts | 255° |
| 2026-04-20 00:26 | 29.78343 | -84.84314 | 5083 ft | 234 kts | 255° |
| 2026-04-20 00:26 | 29.77806 | -84.86091 | 4641 ft | 235 kts | 255° |
| 2026-04-20 00:26 | 29.77265 | -84.87879 | 4207 ft | 238 kts | 253° |
| 2026-04-20 00:27 | 29.76718 | -84.89686 | 3780 ft | 240 kts | 254° |
| 2026-04-20 00:27 | 29.76168 | -84.91506 | 3369 ft | 242 kts | 253° |
| 2026-04-20 00:27 | 29.75620 | -84.93295 | 2922 ft | 228 kts | 254° |
| 2026-04-20 00:27 | 29.75112 | -84.94954 | 2492 ft | 213 kts | 255° |
| 2026-04-20 00:28 | 29.74636 | -84.96523 | 2045 ft | 202 kts | 257° |
| 2026-04-20 00:28 | 29.74188 | -84.98006 | 1600 ft | 192 kts | 257° |
| 2026-04-20 00:28 | 29.73616 | -84.99355 | 1190 ft | 182 kts | 232° |
| 2026-04-20 00:28 | 29.72589 | -84.99948 | 983 ft | 152 kts | 182° |
| 2026-04-20 00:29 | 29.71632 | -84.99921 | 982 ft | 127 kts | 176° |
| 2026-04-20 00:29 | 29.70806 | -84.99913 | 951 ft | 120 kts | 189° |
| 2026-04-20 00:29 | 29.70225 | -85.00498 | 798 ft | 107 kts | 270° |
| 2026-04-20 00:29 | 29.70160 | -85.01284 | 680 ft | 97 kts | 282° |
| 2026-04-20 00:30 | 29.70230 | -85.02011 | 552 ft | 85 kts | 307° |
| 2026-04-20 00:30 | 29.70662 | -85.02342 | 379 ft | 75 kts | 358° |
| 2026-04-20 00:30 | 29.71190 | -85.02314 | 272 ft | 77 kts | 3° |
| 2026-04-20 00:30 | 29.71737 | -85.02336 | 175 ft | 80 kts | 2° |
| 2026-04-20 00:31 | 29.72298 | -85.02320 | 50 ft | 78 kts | 4° |
| 2026-04-20 00:31 | 29.72761 | -85.02312 | 27 ft | 47 kts | 359° |
| 2026-04-20 00:31 | 29.72931 | -85.02357 | 28 ft | 15 kts | 247° |
| 2026-04-20 00:31 | 29.72872 | -85.02481 | 27 ft | 21 kts | 238° |
| 2026-04-20 00:32 | 29.72777 | -85.02628 | 27 ft | 25 kts | 207° |
| 2026-04-20 00:32 | 29.72616 | -85.02669 | 26 ft | 20 kts | 201° |
| 2026-04-20 00:32 | 29.72554 | -85.02766 | 27 ft | 17 kts | 238° |
| 2026-04-20 00:32 | 29.72543 | -85.02786 | 27 ft | 1 kts | 238° |
| 2026-04-20 00:33 | 29.72526 | -85.02818 | 27 ft | 9 kts | 238° |
| 2026-04-20 00:33 | 29.72472 | -85.02803 | 27 ft | 13 kts | 129° |
| 2026-04-20 00:33 | 29.72395 | -85.02710 | 27 ft | 18 kts | 131° |
| 2026-04-20 00:33 | 29.72346 | -85.02670 | 27 ft | 7 kts | 168° |
| 2026-04-20 00:34 | 29.72330 | -85.02701 | 27 ft | 3 kts | 256° |
| 2026-04-20 00:34 | 29.72328 | -85.02713 | 27 ft | 0 kts | 261° |